createdAt,value
2022-10-19T00:02:44.569Z,100433.91
2022-10-19T00:05:31.955Z,100435.75
2022-10-19T00:08:19.170Z,100434.03
2022-10-19T00:11:06.669Z,100439.31
2022-10-19T00:13:54.325Z,100432.50
2022-10-19T00:16:42.184Z,100431.78
2022-10-19T00:19:30.530Z,100430.97
2022-10-19T00:22:17.757Z,100434.47
2022-10-19T00:25:05.469Z,100430.25
2022-10-19T00:27:52.394Z,100428.59
2022-10-19T00:30:39.661Z,100432.94
2022-10-19T00:33:26.857Z,100429.53
2022-10-19T00:36:21.947Z,100428.72
2022-10-19T00:39:13.342Z,100422.84
2022-10-19T00:42:00.675Z,100422.94
2022-10-19T00:45:07.673Z,100411.13
2022-10-19T00:47:55.224Z,100418.84
2022-10-19T00:50:43.080Z,100423.16
2022-10-19T00:53:32.621Z,100418.00
2022-10-19T00:56:20.413Z,100420.69
2022-10-19T00:59:09.243Z,100415.53
2022-10-19T01:01:56.632Z,100414.72
2022-10-19T01:04:50.129Z,100411.41
2022-10-19T01:07:37.534Z,100413.97
2022-10-19T01:10:36.002Z,100418.44
2022-10-19T01:13:37.879Z,100408.94
2022-10-19T01:16:36.660Z,100397.91
2022-10-19T01:20:10.065Z,100405.63
2022-10-19T01:23:25.251Z,100402.47
2022-10-19T01:26:31.793Z,100399.16
2022-10-19T01:29:30.894Z,100388.84
2022-10-19T01:32:26.123Z,100390.50
2022-10-19T01:35:22.838Z,100386.16
2022-10-19T01:38:24.515Z,100393.81
2022-10-19T01:41:18.269Z,100385.16
2022-10-19T01:44:15.447Z,100389.38
2022-10-19T01:47:07.528Z,100384.22
2022-10-19T01:50:01.961Z,100379.81
2022-10-19T01:52:51.596Z,100378.84
2022-10-19T01:55:43.613Z,100375.34
2022-10-19T01:58:34.177Z,100380.41
2022-10-19T02:01:22.951Z,100374.44
2022-10-19T02:04:11.453Z,100371.75
2022-10-19T02:07:00.799Z,100364.84
2022-10-19T02:09:48.156Z,100368.25
2022-10-19T02:12:36.997Z,100359.63
2022-10-19T02:15:28.386Z,100363.91
2022-10-19T02:18:21.156Z,100351.16
2022-10-19T02:21:10.640Z,100360.66
2022-10-19T02:23:59.015Z,100352.91
2022-10-19T02:26:46.234Z,100349.50
2022-10-19T02:29:34.609Z,100344.34
2022-10-19T02:32:22.206Z,100340.03
2022-10-19T02:35:10.685Z,100347.78
2022-10-19T02:38:03.411Z,100344.25
2022-10-19T02:40:59.746Z,100347.78
2022-10-19T02:43:51.618Z,100351.16
2022-10-19T02:46:45.212Z,100346.81
2022-10-19T02:49:35.682Z,100353.63
2022-10-19T02:52:22.841Z,100348.47
2022-10-19T02:55:10.647Z,100344.16
2022-10-19T02:57:59.216Z,100346.63
2022-10-19T03:00:46.715Z,100345.66
2022-10-19T03:03:33.776Z,100349.09
2022-10-19T03:06:21.532Z,100345.59
2022-10-19T03:09:09.008Z,100351.56
2022-10-19T03:11:57.371Z,100352.38
2022-10-19T03:14:46.068Z,100352.38
2022-10-19T03:17:33.456Z,100346.41
2022-10-19T03:20:21.079Z,100340.22
2022-10-19T03:23:08.627Z,100336.81
2022-10-19T03:25:55.776Z,100341.03
2022-10-19T03:28:43.398Z,100341.97
2022-10-19T03:31:32.026Z,100337.66
2022-10-19T03:34:19.608Z,100337.66
2022-10-19T03:37:06.562Z,100333.41
2022-10-19T03:39:53.874Z,100336.81
2022-10-19T03:42:41.002Z,100345.38
2022-10-19T03:45:28.086Z,100341.03
2022-10-19T03:48:16.620Z,100341.25
2022-10-19T03:51:06.239Z,100342.06
2022-10-19T03:53:55.035Z,100342.06
2022-10-19T03:56:42.963Z,100339.59
2022-10-19T03:59:30.364Z,100337.94
2022-10-19T04:02:17.668Z,100343.31
2022-10-19T04:05:08.124Z,100333.88
2022-10-19T04:07:55.401Z,100327.88
2022-10-19T04:10:42.316Z,100333.03
2022-10-19T04:13:30.262Z,100327.88
2022-10-19T04:16:18.518Z,100333.03
2022-10-19T04:19:06.762Z,100335.59
2022-10-19T04:21:55.509Z,100335.69
2022-10-19T04:24:42.904Z,100336.50
2022-10-19T04:27:30.257Z,100337.34
2022-10-19T04:30:17.779Z,100338.16
2022-10-19T04:33:05.072Z,100335.69
2022-10-19T04:35:52.428Z,100341.66
2022-10-19T04:38:40.965Z,100341.66
2022-10-19T04:41:28.287Z,100345.19
2022-10-19T04:44:15.673Z,100343.44
2022-10-19T04:47:03.041Z,100343.44
2022-10-19T04:49:50.183Z,100340.03
2022-10-19T04:52:37.410Z,100339.31
2022-10-19T04:55:26.244Z,100340.22
2022-10-19T04:58:13.364Z,100337.78
2022-10-19T05:01:00.544Z,100331.81
2022-10-19T05:03:48.516Z,100335.31
2022-10-19T05:06:35.699Z,100329.34
2022-10-19T05:09:22.885Z,100332.84
2022-10-19T05:12:11.316Z,100322.66
2022-10-19T05:14:58.369Z,100322.75
2022-10-19T05:17:45.740Z,100318.41
2022-10-19T05:20:32.731Z,100321.00
2022-10-19T05:23:19.799Z,100315.84
2022-10-19T05:26:09.354Z,100308.22
2022-10-19T05:29:01.959Z,100304.84
2022-10-19T05:31:49.505Z,100309.16
2022-10-19T05:34:36.771Z,100299.78
2022-10-19T05:37:25.727Z,100306.69
2022-10-19T05:40:13.466Z,100307.63
2022-10-19T05:43:00.708Z,100309.50
2022-10-19T05:45:49.149Z,100306.19
2022-10-19T05:48:36.808Z,100309.66
2022-10-19T05:51:26.162Z,100303.59
2022-10-19T05:54:14.154Z,100309.59
2022-10-19T05:57:01.403Z,100303.59
2022-10-19T05:59:48.307Z,100308.75
2022-10-19T06:02:36.618Z,100307.22
2022-10-19T06:05:05.757Z,100314.13
2022-10-19T06:07:34.669Z,100314.13
2022-10-19T06:10:03.419Z,100309.91
2022-10-19T06:12:31.985Z,100317.63
2022-10-19T06:15:00.571Z,100312.47
2022-10-19T06:17:30.293Z,100317.63
2022-10-19T06:20:00.295Z,100314.22
2022-10-19T06:22:28.926Z,100314.34
2022-10-19T06:24:57.536Z,100314.34
2022-10-19T06:27:26.261Z,100310.91
2022-10-19T06:29:55.209Z,100314.34
2022-10-19T06:32:23.962Z,100312.69
2022-10-19T06:34:56.423Z,100315.97
2022-10-19T06:37:26.742Z,100322.75
2022-10-19T06:39:55.492Z,100316.69
2022-10-19T06:42:24.114Z,100325.22
2022-10-19T06:44:52.649Z,100326.06
2022-10-19T06:47:21.275Z,100321.72
2022-10-19T06:49:49.829Z,100326.06
2022-10-19T06:52:18.525Z,100325.22
2022-10-19T06:54:48.546Z,100328.75
2022-10-19T06:57:17.190Z,100327.09
2022-10-19T06:59:48.051Z,100332.13
2022-10-19T07:02:18.040Z,100331.22
2022-10-19T07:04:46.665Z,100330.19
2022-10-19T07:07:15.380Z,100322.34
2022-10-19T07:09:44.080Z,100337.59
2022-10-19T07:12:14.038Z,100342.63
2022-10-19T07:14:42.719Z,100344.16
2022-10-19T07:17:12.938Z,100332.03
2022-10-19T07:19:41.573Z,100337.88
2022-10-19T07:22:10.160Z,100337.78
2022-10-19T07:24:38.746Z,100330.88
2022-10-19T07:27:07.345Z,100329.00
2022-10-19T07:29:37.859Z,100330.66
2022-10-19T07:32:06.809Z,100333.13
2022-10-19T07:34:35.426Z,100333.03
2022-10-19T07:37:04.034Z,100343.09
2022-10-19T07:39:32.767Z,100337.03
2022-10-19T07:42:01.342Z,100338.56
2022-10-19T07:44:29.995Z,100340.22
2022-10-19T07:46:59.971Z,100342.56
2022-10-19T07:49:28.812Z,100342.47
2022-10-19T07:51:57.468Z,100336.38
2022-10-19T07:54:27.458Z,100338.84
2022-10-19T07:56:56.063Z,100343.91
2022-10-19T07:59:24.684Z,100339.50
2022-10-19T08:01:54.634Z,100346.31
2022-10-19T08:04:55.913Z,100344.53
2022-10-19T08:07:13.816Z,100345.47
2022-10-19T08:09:57.790Z,100350.50
2022-10-19T08:12:26.486Z,100346.09
2022-10-19T08:14:55.378Z,100349.25
2022-10-19T08:17:24.047Z,100343.06
2022-10-19T08:19:54.057Z,100338.66
2022-10-19T08:22:22.775Z,100347.06
2022-10-19T08:24:51.414Z,100349.44
2022-10-19T08:27:20.045Z,100339.84
2022-10-19T08:29:48.712Z,100344.06
2022-10-19T08:32:17.359Z,100338.69
2022-10-19T08:34:46.289Z,100334.28
2022-10-19T08:37:25.707Z,100334.97
2022-10-19T08:40:01.528Z,100328.88
2022-10-19T08:42:43.917Z,100328.78
2022-10-19T08:45:31.922Z,100338.28
2022-10-19T08:48:16.845Z,100325.38
2022-10-19T08:50:48.732Z,100322.81
2022-10-19T08:53:25.350Z,100317.66
2022-10-19T08:56:06.762Z,100314.16
2022-10-19T08:58:52.259Z,100309.69
2022-10-19T09:01:39.627Z,100313.00
2022-10-19T09:04:16.552Z,100316.38
2022-10-19T09:07:08.709Z,100312.88
2022-10-19T09:12:26.147Z,100314.44
2022-10-19T09:15:00.792Z,100304.00
2022-10-19T09:17:30.165Z,100310.69
2022-10-19T09:19:59.877Z,100311.38
2022-10-19T09:22:34.297Z,100313.84
2022-10-19T09:25:13.820Z,100311.16
2022-10-19T09:27:45.668Z,100316.31
2022-10-19T09:30:21.216Z,100315.38
2022-10-19T09:32:53.344Z,100309.31
2022-10-19T09:35:31.567Z,100314.47
2022-10-19T09:38:00.622Z,100311.16
2022-10-19T09:40:32.142Z,100313.84
2022-10-19T09:43:08.800Z,100320.03
2022-10-19T09:45:46.115Z,100314.44
2022-10-19T09:48:21.985Z,100314.50
2022-10-19T09:50:56.974Z,100312.88
2022-10-19T09:53:26.715Z,100306.88
2022-10-19T09:56:06.209Z,100308.53
2022-10-19T09:58:36.139Z,100299.03
2022-10-19T10:01:05.172Z,100305.84
2022-10-19T10:03:36.351Z,100298.00
2022-10-19T10:06:08.323Z,100304.81
2022-10-19T10:08:41.816Z,100299.66
2022-10-19T10:11:14.874Z,100300.38
2022-10-19T10:13:49.724Z,100304.47
2022-10-19T10:16:20.143Z,100295.69
2022-10-19T10:18:55.688Z,100294.66
2022-10-19T10:21:27.128Z,100297.13
2022-10-19T10:24:06.756Z,100292.78
2022-10-19T10:26:43.343Z,100293.59
2022-10-19T10:29:21.272Z,100293.59
2022-10-19T10:31:52.784Z,100299.50
2022-10-19T10:37:27.285Z,100296.78
2022-10-19T10:40:03.613Z,100294.09
2022-10-19T10:42:39.171Z,100297.38
2022-10-19T10:45:19.918Z,100301.59
2022-10-19T10:47:49.929Z,100295.53
2022-10-19T10:50:23.687Z,100299.03
2022-10-19T10:53:05.167Z,100290.47
2022-10-19T10:55:35.111Z,100292.22
2022-10-19T10:58:21.233Z,100283.78
2022-10-19T11:00:52.804Z,100277.91
2022-10-19T11:03:28.904Z,100267.72
2022-10-19T11:06:00.724Z,100269.47
2022-10-19T11:08:39.928Z,100272.88
2022-10-19T11:11:16.563Z,100262.44
2022-10-19T11:13:54.433Z,100262.44
2022-10-19T11:16:28.631Z,100256.25
2022-10-19T11:19:03.958Z,100252.72
2022-10-19T11:21:38.437Z,100258.69
2022-10-19T11:24:17.017Z,100245.81
2022-10-19T11:27:11.400Z,100245.00
2022-10-19T11:29:57.831Z,100247.69
2022-10-19T11:32:36.673Z,100236.66
2022-10-19T11:35:24.831Z,100238.31
2022-10-19T11:38:19.447Z,100231.50
2022-10-19T11:41:16.809Z,100227.19
2022-10-19T11:44:05.889Z,100209.03
2022-10-19T11:46:45.722Z,100215.84
2022-10-19T11:49:30.666Z,100218.41
2022-10-19T11:52:08.337Z,100205.63
2022-10-19T11:54:52.553Z,100204.91
2022-10-19T11:57:25.548Z,100204.09
2022-10-19T12:00:14.964Z,100205.03
2022-10-19T12:03:22.682Z,100196.56
2022-10-19T12:06:04.715Z,100199.28
2022-10-19T12:08:55.373Z,100197.75
2022-10-19T12:11:41.152Z,100189.31
2022-10-19T12:14:17.776Z,100190.13
2022-10-19T12:16:51.671Z,100182.41
2022-10-19T12:19:26.315Z,100185.81
2022-10-19T12:21:59.922Z,100179.00
2022-10-19T12:24:30.946Z,100176.53
2022-10-19T12:27:00.983Z,100178.16
2022-10-19T12:29:33.750Z,100171.28
2022-10-19T12:32:04.971Z,100169.63
2022-10-19T12:34:43.014Z,100167.16
2022-10-19T12:37:19.591Z,100171.59
2022-10-19T12:39:57.464Z,100165.63
2022-10-19T12:42:31.205Z,100164.72
2022-10-19T12:45:25.358Z,100164.59
2022-10-19T12:48:24.715Z,100169.75
2022-10-19T12:51:19.649Z,100163.53
2022-10-19T12:53:50.246Z,100153.91
2022-10-19T12:56:23.734Z,100150.19
2022-10-19T12:58:56.862Z,100168.00
2022-10-19T13:01:29.455Z,100156.75
2022-10-19T13:04:14.260Z,100153.47
2022-10-19T13:06:47.443Z,100157.09
2022-10-19T13:09:29.104Z,100159.78
2022-10-19T13:12:30.479Z,100153.22
2022-10-19T13:15:01.599Z,100149.00
2022-10-19T13:17:43.986Z,100138.81
2022-10-19T13:20:53.403Z,100138.81
2022-10-19T13:23:42.882Z,100131.88
2022-10-19T13:26:33.927Z,100135.31
2022-10-19T13:29:03.236Z,100119.72
2022-10-19T13:31:37.518Z,100116.22
2022-10-19T13:34:12.579Z,100115.25
2022-10-19T13:37:00.403Z,100114.56
2022-10-19T13:39:31.514Z,100112.22
2022-10-19T13:42:00.469Z,100110.81
2022-10-19T13:44:35.510Z,100110.22
2022-10-19T13:50:33.626Z,100118.25
2022-10-19T13:53:29.949Z,100107.59
2022-10-19T13:56:28.552Z,100099.38
2022-10-19T13:59:50.375Z,100089.66
2022-10-19T14:02:43.845Z,100091.72
2022-10-19T14:05:42.582Z,100095.09
2022-10-19T14:08:29.848Z,100092.44
2022-10-19T14:11:04.416Z,100099.13
2022-10-19T14:13:34.453Z,100101.63
2022-10-19T14:16:03.268Z,100097.16
2022-10-19T14:18:34.557Z,100096.00
2022-10-19T14:21:08.263Z,100089.06
2022-10-19T14:23:39.884Z,100099.28
2022-10-19T14:26:15.249Z,100097.41
2022-10-19T14:28:45.527Z,100094.81
2022-10-19T14:31:23.292Z,100091.44
2022-10-19T14:33:54.284Z,100100.91
2022-10-19T14:36:26.873Z,100092.50
2022-10-19T14:38:57.660Z,100095.19
2022-10-19T14:44:38.606Z,100083.06
2022-10-19T14:47:22.891Z,100065.34
2022-10-19T14:49:52.187Z,100078.47
2022-10-19T14:55:12.651Z,100072.25
2022-10-19T14:57:47.630Z,100076.78
2022-10-19T15:00:21.788Z,100082.06
2022-10-19T15:02:59.581Z,100073.50
2022-10-19T15:05:37.492Z,100057.25
2022-10-19T15:08:12.420Z,100063.31
2022-10-19T15:10:45.782Z,100065.88
2022-10-19T15:13:25.185Z,100066.72
2022-10-19T15:15:56.495Z,100069.31
2022-10-19T15:18:48.351Z,100064.03
2022-10-19T15:21:20.963Z,100055.38
2022-10-19T15:23:51.184Z,100049.09
2022-10-19T15:26:22.774Z,100040.31
2022-10-19T15:28:55.858Z,100027.31
2022-10-19T15:31:30.217Z,100027.09
2022-10-19T15:34:02.379Z,100033.88
2022-10-19T15:36:32.841Z,100031.19
2022-10-19T15:39:24.513Z,100030.16
2022-10-19T15:41:54.448Z,100025.91
2022-10-19T15:44:41.465Z,100026.59
2022-10-19T15:47:26.936Z,100034.25
2022-10-19T15:50:03.020Z,100026.41
2022-10-19T15:52:34.826Z,100032.38
2022-10-19T15:55:04.051Z,100022.81
2022-10-19T15:57:35.308Z,100025.28
2022-10-19T16:00:13.610Z,100022.69
2022-10-19T16:02:43.662Z,100014.03
2022-10-19T16:05:12.305Z,100013.09
2022-10-19T16:07:42.788Z,100019.06
2022-10-19T16:10:17.618Z,100003.50
2022-10-19T16:12:46.352Z,99999.03
2022-10-19T16:15:16.543Z,99995.66
2022-10-19T16:17:47.629Z,99994.00
2022-10-19T16:20:17.607Z,100000.81
2022-10-19T16:22:47.762Z,100001.59
2022-10-19T16:25:17.160Z,99998.34
2022-10-19T16:27:45.823Z,99989.69
2022-10-19T16:30:17.992Z,99989.69
2022-10-19T16:32:49.707Z,99993.88
2022-10-19T16:35:18.683Z,99994.00
2022-10-19T16:37:47.425Z,99993.19
2022-10-19T16:40:16.173Z,99994.00
2022-10-19T16:42:44.746Z,99998.34
2022-10-19T16:45:13.862Z,99993.19
2022-10-19T16:47:42.481Z,99996.69
2022-10-19T16:50:13.079Z,100002.66
2022-10-19T16:52:41.665Z,99994.94
2022-10-19T16:55:10.499Z,100003.50
2022-10-19T16:57:39.205Z,100005.16
2022-10-19T17:00:10.168Z,100000.94
2022-10-19T17:02:41.984Z,100007.72
2022-10-19T17:05:14.657Z,100008.66
2022-10-19T17:07:43.255Z,100003.50
2022-10-19T17:10:12.237Z,100006.75
2022-10-19T17:12:41.650Z,99995.66
2022-10-19T17:18:01.858Z,100000.09
2022-10-19T17:20:33.262Z,100000.94
2022-10-19T17:23:02.013Z,99995.78
2022-10-19T17:25:30.752Z,100001.59
2022-10-19T17:27:59.410Z,100004.44
2022-10-19T17:30:28.339Z,99998.34
2022-10-19T17:32:56.928Z,100001.84
2022-10-19T17:35:25.518Z,99990.75
2022-10-19T17:37:55.544Z,99988.16
2022-10-19T17:40:24.187Z,99985.72
2022-10-19T17:42:52.757Z,99989.22
2022-10-19T17:45:21.405Z,99996.94
2022-10-19T17:47:50.001Z,99993.53
2022-10-19T17:50:18.679Z,99990.13
2022-10-19T17:52:47.295Z,99989.34
2022-10-19T17:55:19.765Z,99989.34
2022-10-19T17:57:48.391Z,99974.69
2022-10-19T18:00:17.536Z,99979.84
2022-10-19T18:02:46.814Z,99987.56
2022-10-19T18:05:15.688Z,99973.00
2022-10-19T18:07:45.848Z,99970.56
2022-10-19T18:10:15.539Z,99970.44
2022-10-19T18:12:45.625Z,99970.69
2022-10-19T18:15:14.256Z,99973.97
2022-10-19T18:17:43.139Z,99971.47
2022-10-19T18:20:13.098Z,99963.88
2022-10-19T18:25:11.649Z,99953.69
2022-10-19T18:27:40.225Z,99965.66
2022-10-19T18:30:11.693Z,99969.94
2022-10-19T18:32:40.347Z,99958.97
2022-10-19T18:35:10.397Z,99961.66
2022-10-19T18:37:39.083Z,99970.19
2022-10-19T18:40:10.440Z,99959.09
2022-10-19T18:42:39.076Z,99961.78
2022-10-19T18:45:10.784Z,99955.66
2022-10-19T18:47:39.546Z,99943.75
2022-10-19T18:50:08.758Z,99942.09
2022-10-19T18:52:39.310Z,99940.47
2022-10-19T18:55:09.396Z,99929.34
2022-10-19T18:57:38.029Z,99925.94
2022-10-19T19:00:09.706Z,99923.50
2022-10-19T19:02:46.323Z,99927.03
2022-10-19T19:05:16.000Z,99934.84
2022-10-19T19:07:44.583Z,99933.91
2022-10-19T19:10:14.443Z,99932.25
2022-10-19T19:12:44.230Z,99932.25
2022-10-19T19:15:14.259Z,99932.16
2022-10-19T19:17:42.925Z,99926.19
2022-10-19T19:20:12.069Z,99932.25
2022-10-19T19:22:40.698Z,99922.78
2022-10-19T19:25:09.976Z,99930.66
2022-10-19T19:30:13.678Z,99912.63
2022-10-19T19:32:42.561Z,99910.97
2022-10-19T19:35:11.356Z,99910.97
2022-10-19T19:37:40.021Z,99916.13
2022-10-19T19:40:10.442Z,99921.28
2022-10-19T19:42:39.021Z,99914.59
2022-10-19T19:45:09.286Z,99916.38
2022-10-19T19:47:39.217Z,99912.16
2022-10-19T19:50:09.639Z,99914.72
2022-10-19T19:52:40.564Z,99919.03
2022-10-19T19:55:09.971Z,99905.47
2022-10-19T19:57:38.665Z,99911.44
2022-10-19T20:00:09.061Z,99890.03
2022-10-19T20:02:41.476Z,99895.16
2022-10-19T20:05:29.236Z,99882.41
2022-10-19T20:08:16.692Z,99887.56
2022-10-19T20:11:06.037Z,99885.13
2022-10-19T20:13:53.295Z,99885.91
2022-10-19T20:16:40.890Z,99880.09
2022-10-19T20:19:29.868Z,99879.25
2022-10-19T20:22:16.978Z,99880.09
2022-10-19T20:25:04.781Z,99881.00
2022-10-19T20:27:51.917Z,99881.00
2022-10-19T20:30:39.088Z,99875.16
2022-10-19T20:33:26.168Z,99874.47
2022-10-19T20:36:18.781Z,99872.56
2022-10-19T20:39:06.006Z,99876.91
2022-10-19T20:41:53.842Z,99879.59
2022-10-19T20:44:40.837Z,99883.81
2022-10-19T20:47:27.863Z,99875.16
2022-10-19T20:50:17.012Z,99880.41
2022-10-19T20:53:09.358Z,99863.31
2022-10-19T20:55:56.723Z,99871.03
2022-10-19T20:58:45.145Z,99876.19
2022-10-19T21:01:33.942Z,99872.81
2022-10-19T21:04:21.292Z,99870.38
2022-10-19T21:07:08.774Z,99873.75
2022-10-19T21:09:57.363Z,99873.06
2022-10-19T21:12:44.541Z,99875.75
2022-10-19T21:15:31.864Z,99882.63
2022-10-19T21:18:19.266Z,99874.09
2022-10-19T21:21:18.455Z,99877.47
2022-10-19T21:24:07.879Z,99888.72
2022-10-19T21:26:56.683Z,99879.25
2022-10-19T21:29:43.773Z,99886.03
2022-10-19T21:32:30.822Z,99891.19
2022-10-19T21:35:17.978Z,99883.56
2022-10-19T21:38:05.368Z,99885.44
2022-10-19T21:40:52.550Z,99871.84
2022-10-19T21:43:41.165Z,99869.41
2022-10-19T21:46:28.475Z,99864.38
2022-10-19T21:49:15.629Z,99867.88
2022-10-19T21:52:02.768Z,99864.50
2022-10-19T21:54:49.807Z,99859.47
2022-10-19T21:57:37.326Z,99856.91
2022-10-19T22:00:25.831Z,99854.31
2022-10-19T22:06:05.159Z,99850.09
2022-10-19T22:08:52.600Z,99844.16
2022-10-19T22:11:39.585Z,99841.69
2022-10-19T22:14:26.929Z,99838.41
2022-10-19T22:17:15.572Z,99849.50
2022-10-19T22:20:02.876Z,99838.28
2022-10-19T22:22:52.774Z,99841.78
2022-10-19T22:25:42.252Z,99826.47
2022-10-19T22:28:29.982Z,99811.03
2022-10-19T22:31:17.637Z,99812.00
2022-10-19T22:34:08.903Z,99824.84
2022-10-19T22:36:55.971Z,99820.50
2022-10-19T22:39:43.270Z,99824.84
2022-10-19T22:42:30.525Z,99819.72
2022-10-19T22:45:18.318Z,99816.16
2022-10-19T22:48:06.098Z,99809.28
2022-10-19T22:50:56.170Z,99805.88
2022-10-19T22:53:43.206Z,99809.41
2022-10-19T22:56:31.977Z,99804.28
2022-10-19T22:59:19.088Z,99797.47
2022-10-19T23:02:06.401Z,99786.34
2022-10-19T23:04:53.666Z,99781.19
2022-10-19T23:07:42.377Z,99783.91
2022-10-19T23:10:29.970Z,99769.41
2022-10-19T23:13:17.316Z,99764.28
2022-10-19T23:16:05.285Z,99758.16
2022-10-19T23:18:52.702Z,99760.75
2022-10-19T23:21:39.691Z,99758.16
2022-10-19T23:24:28.302Z,99758.16
2022-10-19T23:27:15.879Z,99760.88
2022-10-19T23:30:04.429Z,99752.47
2022-10-19T23:32:51.469Z,99739.47
2022-10-19T23:35:38.405Z,99737.03
2022-10-19T23:38:25.390Z,99735.38
2022-10-19T23:41:14.457Z,99735.25
2022-10-19T23:44:01.493Z,99725.09
2022-10-19T23:46:48.613Z,99715.59
2022-10-19T23:49:35.792Z,99720.75
2022-10-19T23:52:22.898Z,99733.63
2022-10-19T23:55:10.824Z,99722.50
2022-10-19T23:57:59.489Z,99722.63
